createdAt,value
2022-09-14T00:01:29.907Z,0
2022-09-14T00:01:54.658Z,0
2022-09-14T00:02:54.503Z,0
2022-09-14T00:03:54.226Z,0
2022-09-14T00:04:53.941Z,0
2022-09-14T00:05:53.387Z,0
2022-09-14T00:06:53.663Z,0
2022-09-14T00:07:53.372Z,0
2022-09-14T00:08:53.435Z,0
2022-09-14T00:09:53.399Z,0
2022-09-14T00:10:53.614Z,0
2022-09-14T00:11:53.399Z,0
2022-09-14T00:12:53.088Z,0
2022-09-14T00:13:53.768Z,0
2022-09-14T00:14:52.819Z,0
2022-09-14T00:15:53.320Z,0
2022-09-14T00:16:54.157Z,0
2022-09-14T00:17:53.325Z,0
2022-09-14T00:18:53.622Z,0
2022-09-14T00:19:53.646Z,0
2022-09-14T00:20:53.569Z,0
2022-09-14T00:21:53.036Z,0
2022-09-14T00:22:52.757Z,0
2022-09-14T00:23:53.270Z,0
2022-09-14T00:24:52.750Z,0
2022-09-14T00:25:53.508Z,0
2022-09-14T00:26:53.503Z,0
2022-09-14T00:27:53.234Z,0
2022-09-14T00:28:53.531Z,0
2022-09-14T00:29:53.025Z,0
2022-09-14T00:30:53.249Z,0
2022-09-14T00:31:53.526Z,0
2022-09-14T00:32:53.211Z,0
2022-09-14T00:33:53.061Z,0
2022-09-14T00:34:53.449Z,0
2022-09-14T00:35:53.792Z,0
2022-09-14T00:36:53.235Z,0
2022-09-14T00:37:53.588Z,0
2022-09-14T00:38:53.498Z,0
2022-09-14T00:39:53.778Z,0
2022-09-14T00:40:52.891Z,0
2022-09-14T00:41:53.166Z,0
2022-09-14T00:42:52.922Z,0
2022-09-14T00:43:52.882Z,0
2022-09-14T00:44:53.118Z,0
2022-09-14T00:45:53.576Z,0
2022-09-14T00:46:53.103Z,0
2022-09-14T00:47:52.588Z,0
2022-09-14T00:48:53.713Z,0
2022-09-14T00:49:53.336Z,0
2022-09-14T00:50:53.333Z,0
2022-09-14T00:51:53.674Z,0
2022-09-14T00:52:53.079Z,0
2022-09-14T00:53:53.056Z,0
2022-09-14T00:54:53.570Z,0
2022-09-14T00:55:52.791Z,0
2022-09-14T00:56:53.286Z,0
2022-09-14T00:57:53.127Z,0
2022-09-14T00:58:53.057Z,0
2022-09-14T00:59:52.757Z,0
2022-09-14T01:00:53.867Z,0
2022-09-14T01:01:53.112Z,0
2022-09-14T01:02:52.994Z,0
2022-09-14T01:03:52.728Z,0
2022-09-14T01:04:52.985Z,0
2022-09-14T01:05:52.972Z,0
2022-09-14T01:06:53.472Z,0
2022-09-14T01:07:53.623Z,0
2022-09-14T01:08:53.464Z,0
2022-09-14T01:09:52.942Z,0
2022-09-14T01:10:52.932Z,0
2022-09-14T01:11:58.608Z,0
2022-09-14T01:12:52.932Z,0
2022-09-14T01:13:53.167Z,0
2022-09-14T01:14:52.906Z,0
2022-09-14T01:15:52.898Z,0
2022-09-14T01:16:52.852Z,0
2022-09-14T01:17:52.883Z,0
2022-09-14T01:18:52.897Z,0
2022-09-14T01:19:52.618Z,0
2022-09-14T01:20:53.123Z,0
2022-09-14T01:21:52.864Z,0
2022-09-14T01:22:53.360Z,0
2022-09-14T01:23:53.526Z,0
2022-09-14T01:24:53.115Z,0
2022-09-14T01:25:53.077Z,0
2022-09-14T01:26:53.070Z,0
2022-09-14T01:27:52.555Z,0
2022-09-14T01:28:53.052Z,0
2022-09-14T01:29:52.787Z,0
2022-09-14T01:30:52.784Z,0
2022-09-14T01:31:52.927Z,0
2022-09-14T01:32:52.509Z,0
2022-09-14T01:34:24.961Z,0
2022-09-14T01:34:52.758Z,0
2022-09-14T01:35:53.024Z,0
2022-09-14T01:36:52.501Z,0
2022-09-14T01:37:53.001Z,0
2022-09-14T01:38:52.990Z,0
2022-09-14T01:39:53.794Z,0
2022-09-14T01:40:52.742Z,0
2022-09-14T01:41:53.216Z,0
2022-09-14T01:42:52.960Z,0
2022-09-14T01:43:52.687Z,0
2022-09-14T01:44:52.936Z,0
2022-09-14T01:45:52.880Z,0
2022-09-14T01:46:52.667Z,0
2022-09-14T01:47:52.414Z,0
2022-09-14T01:48:52.760Z,0
2022-09-14T01:49:53.159Z,0
2022-09-14T01:50:52.643Z,0
2022-09-14T01:51:52.930Z,0
2022-09-14T01:52:52.376Z,0
2022-09-14T01:53:52.875Z,0
2022-09-14T01:54:52.870Z,0
2022-09-14T01:55:53.245Z,0
2022-09-14T01:56:52.700Z,0
2022-09-14T01:57:53.099Z,0
2022-09-14T01:58:53.095Z,0
2022-09-14T01:59:52.592Z,0
2022-09-14T02:00:52.934Z,0
2022-09-14T02:01:59.664Z,0
2022-09-14T02:02:53.844Z,0
2022-09-14T02:03:52.937Z,0
2022-09-14T02:04:53.052Z,0
2022-09-14T02:05:52.798Z,0
2022-09-14T02:06:52.786Z,0
2022-09-14T02:07:52.516Z,0
2022-09-14T02:08:52.243Z,0
2022-09-14T02:09:52.241Z,0
2022-09-14T02:10:52.240Z,0
2022-09-14T02:11:53.184Z,0
2022-09-14T02:12:52.504Z,0
2022-09-14T02:13:52.797Z,0
2022-09-14T02:14:52.478Z,0
2022-09-14T02:15:52.321Z,0
2022-09-14T02:16:52.759Z,0
2022-09-14T02:17:52.441Z,0
2022-09-14T02:18:52.281Z,0
2022-09-14T02:19:51.911Z,0
2022-09-14T02:20:52.693Z,0
2022-09-14T02:21:52.685Z,0
2022-09-14T02:22:52.399Z,0
2022-09-14T02:23:52.398Z,0
2022-09-14T02:24:52.382Z,0
2022-09-14T02:25:52.634Z,0
2022-09-14T02:26:52.624Z,0
2022-09-14T02:27:52.972Z,0
2022-09-14T02:28:52.675Z,0
2022-09-14T02:29:52.364Z,0
2022-09-14T02:30:52.342Z,0
2022-09-14T02:31:53.160Z,0
2022-09-14T02:32:52.856Z,0
2022-09-14T02:33:52.438Z,0
2022-09-14T02:34:52.316Z,0
2022-09-14T02:35:52.563Z,0
2022-09-14T02:36:52.552Z,0
2022-09-14T02:37:52.302Z,0
2022-09-14T02:38:52.034Z,0
2022-09-14T02:39:52.810Z,0
2022-09-14T02:40:52.521Z,0
2022-09-14T02:41:52.007Z,0
2022-09-14T02:42:52.767Z,0
2022-09-14T02:43:52.897Z,0
2022-09-14T02:44:52.006Z,0
2022-09-14T02:45:51.996Z,0
2022-09-14T02:46:52.983Z,0
2022-09-14T02:47:52.218Z,0
2022-09-14T02:48:52.268Z,0
2022-09-14T02:49:52.469Z,0
2022-09-14T02:50:52.461Z,0
2022-09-14T02:51:52.192Z,0
2022-09-14T02:52:52.182Z,0
2022-09-14T02:53:52.168Z,0
2022-09-14T02:54:52.443Z,0
2022-09-14T02:55:52.156Z,0
2022-09-14T02:56:52.151Z,0
2022-09-14T02:57:52.405Z,0
2022-09-14T02:58:52.415Z,0
2022-09-14T02:59:52.489Z,0
2022-09-14T03:00:53.197Z,0
2022-09-14T03:01:52.233Z,0
2022-09-14T03:02:52.360Z,0
2022-09-14T03:03:52.362Z,0
2022-09-14T03:04:52.112Z,0
2022-09-14T03:05:52.089Z,0
2022-09-14T03:06:52.076Z,0
2022-09-14T03:07:52.070Z,0
2022-09-14T03:08:52.371Z,0
2022-09-14T03:09:52.057Z,0
2022-09-14T03:10:51.801Z,0
2022-09-14T03:11:52.045Z,0
2022-09-14T03:12:51.521Z,0
2022-09-14T03:13:51.508Z,0
2022-09-14T03:14:52.020Z,0
2022-09-14T03:15:53.052Z,0
2022-09-14T03:16:52.037Z,0
2022-09-14T03:17:51.997Z,0
2022-09-14T03:18:52.618Z,0
2022-09-14T03:19:52.232Z,0
2022-09-14T03:20:51.736Z,0
2022-09-14T03:21:51.961Z,0
2022-09-14T03:22:51.973Z,0
2022-09-14T03:23:52.006Z,0
2022-09-14T03:24:51.956Z,0
2022-09-14T03:25:51.684Z,0
2022-09-14T03:26:51.676Z,0
2022-09-14T03:27:52.434Z,0
2022-09-14T03:28:51.396Z,0
2022-09-14T03:29:52.167Z,0
2022-09-14T03:30:52.688Z,0
2022-09-14T03:31:53.139Z,0
2022-09-14T03:32:51.922Z,0
2022-09-14T03:50:08.152Z,0
2022-09-14T03:51:07.255Z,0
2022-09-14T03:52:08.795Z,0
2022-09-14T03:53:07.233Z,0
2022-09-14T03:54:07.473Z,0
2022-09-14T03:55:07.462Z,0
2022-09-14T03:56:07.984Z,0
2022-09-14T03:57:07.706Z,0
2022-09-14T03:58:07.704Z,0
2022-09-14T03:59:07.689Z,0
2022-09-14T04:00:07.419Z,0
2022-09-14T04:01:07.666Z,0
2022-09-14T04:02:07.564Z,0
2022-09-14T04:03:07.578Z,0
2022-09-14T04:04:07.127Z,0
2022-09-14T04:05:07.640Z,0
2022-09-14T04:06:08.060Z,0
2022-09-14T04:07:07.099Z,0
2022-09-14T04:08:07.609Z,0
2022-09-14T04:09:07.087Z,0
2022-09-14T04:10:07.592Z,0
2022-09-14T04:11:07.079Z,0
2022-09-14T04:12:07.062Z,0
2022-09-14T04:13:07.570Z,0
2022-09-14T04:14:06.790Z,0
2022-09-14T04:15:07.029Z,0
2022-09-14T04:16:07.732Z,0
2022-09-14T04:17:07.298Z,0
2022-09-14T04:18:06.762Z,0
2022-09-14T04:19:07.409Z,0
2022-09-14T04:20:07.566Z,0
2022-09-14T04:21:13.788Z,0
2022-09-14T04:22:07.756Z,0
2022-09-14T04:23:07.490Z,0
2022-09-14T04:24:32.523Z,0
2022-09-14T04:25:07.476Z,0
2022-09-14T04:26:07.463Z,0
2022-09-14T04:27:07.474Z,0
2022-09-14T04:28:29.198Z,0
2022-09-14T04:29:06.947Z,0
2022-09-14T04:30:07.438Z,0
2022-09-14T04:31:07.568Z,0
2022-09-14T04:32:07.698Z,0
2022-09-14T04:33:07.674Z,0
2022-09-14T04:34:06.888Z,0
2022-09-14T04:35:07.693Z,0
2022-09-14T04:36:07.398Z,0
2022-09-14T04:37:07.206Z,0
2022-09-14T04:38:07.427Z,0
2022-09-14T04:39:07.118Z,0
2022-09-14T04:40:07.310Z,0
2022-09-14T04:41:07.638Z,0
2022-09-14T04:42:07.348Z,0
2022-09-14T04:43:07.083Z,0
2022-09-14T04:44:07.332Z,0
2022-09-14T04:45:07.321Z,0
2022-09-14T04:46:07.034Z,0
2022-09-14T04:47:07.727Z,0
2022-09-14T04:48:07.322Z,0
2022-09-14T04:49:07.308Z,0
2022-09-14T04:50:07.295Z,0
2022-09-14T04:51:07.026Z,0
2022-09-14T04:52:07.281Z,0
2022-09-14T04:53:07.113Z,0
2022-09-14T04:54:07.333Z,0
2022-09-14T04:55:06.735Z,0
2022-09-14T04:56:07.257Z,0
2022-09-14T04:57:07.010Z,0
2022-09-14T04:58:06.758Z,0
2022-09-14T04:59:06.988Z,0
2022-09-14T05:00:06.759Z,0
2022-09-14T05:01:07.239Z,0
2022-09-14T05:02:07.601Z,0
2022-09-14T05:03:07.084Z,0
2022-09-14T05:04:06.932Z,0
2022-09-14T05:05:07.443Z,0
2022-09-14T05:06:07.171Z,0
2022-09-14T05:07:06.911Z,0
2022-09-14T05:08:06.906Z,0
2022-09-14T05:09:06.975Z,0
2022-09-14T05:10:07.031Z,0
2022-09-14T05:11:06.886Z,0
2022-09-14T05:12:06.609Z,0
2022-09-14T05:13:07.376Z,5
2022-09-14T05:14:07.122Z,5
2022-09-14T05:15:06.586Z,0
2022-09-14T05:16:07.445Z,0
2022-09-14T05:17:06.841Z,5
2022-09-14T05:18:06.571Z,5
2022-09-14T05:19:06.629Z,5
2022-09-14T05:20:06.552Z,5
2022-09-14T05:21:12.237Z,5
2022-09-14T05:22:06.544Z,5
2022-09-14T05:23:07.055Z,5
2022-09-14T05:24:06.529Z,5
2022-09-14T05:25:07.460Z,5
2022-09-14T05:26:07.082Z,5
2022-09-14T05:27:10.667Z,5
2022-09-14T05:28:07.017Z,5
2022-09-14T05:29:07.002Z,5
2022-09-14T05:30:06.516Z,5
2022-09-14T05:31:07.323Z,5
2022-09-14T05:32:06.780Z,5
2022-09-14T05:33:07.332Z,5
2022-09-14T05:34:06.479Z,5
2022-09-14T05:35:06.291Z,5
2022-09-14T05:36:06.955Z,5
2022-09-14T05:37:06.960Z,5
2022-09-14T05:38:06.693Z,5
2022-09-14T05:39:06.947Z,5
2022-09-14T05:40:07.386Z,5
2022-09-14T05:41:06.850Z,10
2022-09-14T05:42:07.264Z,10
2022-09-14T05:43:06.907Z,10
2022-09-14T05:44:06.381Z,10
2022-09-14T05:45:06.195Z,10
2022-09-14T05:46:07.307Z,10
2022-09-14T05:47:06.620Z,10
2022-09-14T05:48:06.609Z,10
2022-09-14T05:49:07.123Z,5
2022-09-14T05:50:06.341Z,5
2022-09-14T05:51:06.852Z,5
2022-09-14T05:52:06.343Z,5
2022-09-14T05:53:07.088Z,5
2022-09-14T05:54:06.580Z,5
2022-09-14T05:55:06.818Z,5
2022-09-14T05:56:06.809Z,5
2022-09-14T05:57:07.142Z,10
2022-09-14T05:58:07.138Z,10
2022-09-14T05:59:06.538Z,5
2022-09-14T06:00:06.784Z,5
2022-09-14T06:01:06.778Z,5
2022-09-14T06:02:06.894Z,5
2022-09-14T06:03:06.503Z,5
2022-09-14T06:04:06.834Z,5
2022-09-14T06:05:06.907Z,5
2022-09-14T06:06:06.237Z,5
2022-09-14T06:07:26.888Z,5
2022-09-14T06:08:06.209Z,5
2022-09-14T06:09:06.459Z,5
2022-09-14T06:10:06.457Z,5
2022-09-14T06:11:06.448Z,5
2022-09-14T06:12:06.446Z,10
2022-09-14T06:13:06.545Z,10
2022-09-14T06:14:06.806Z,10
2022-09-14T06:15:06.171Z,10
2022-09-14T06:16:06.785Z,15
2022-09-14T06:17:06.143Z,20
2022-09-14T06:18:05.890Z,20
2022-09-14T06:19:06.921Z,15
2022-09-14T06:20:11.522Z,20
2022-09-14T06:21:06.636Z,20
2022-09-14T06:22:06.373Z,20
2022-09-14T06:23:06.380Z,20
2022-09-14T06:24:06.921Z,15
2022-09-14T06:25:06.354Z,15
2022-09-14T06:26:05.826Z,15
2022-09-14T06:27:06.853Z,15
2022-09-14T06:28:06.586Z,15
2022-09-14T06:29:06.702Z,15
2022-09-14T06:30:06.624Z,15
2022-09-14T06:31:06.577Z,20
2022-09-14T06:32:06.044Z,15
2022-09-14T06:33:06.551Z,15
2022-09-14T06:34:06.542Z,15
2022-09-14T06:35:10.386Z,10
2022-09-14T06:36:06.020Z,10
2022-09-14T06:37:06.535Z,15
2022-09-14T06:38:06.000Z,15
2022-09-14T06:39:06.523Z,20
2022-09-14T06:40:07.098Z,20
2022-09-14T06:41:06.755Z,20
2022-09-14T06:42:06.231Z,20
2022-09-14T06:43:06.221Z,20
2022-09-14T06:44:06.537Z,20
2022-09-14T06:45:06.661Z,20
2022-09-14T06:46:06.367Z,20
2022-09-14T06:47:06.714Z,15
2022-09-14T06:48:06.189Z,15
2022-09-14T06:49:06.456Z,20
2022-09-14T06:50:06.175Z,15
2022-09-14T06:51:05.908Z,15
2022-09-14T06:52:06.717Z,10
2022-09-14T06:53:06.417Z,10
2022-09-14T06:54:06.413Z,10
2022-09-14T06:55:05.885Z,15
2022-09-14T06:56:06.392Z,15
2022-09-14T06:57:06.125Z,15
2022-09-14T06:58:06.119Z,15
2022-09-14T06:59:05.863Z,15
2022-09-14T07:00:05.644Z,15
2022-09-14T07:01:06.466Z,25
2022-09-14T07:02:06.224Z,30
2022-09-14T07:03:06.558Z,40
2022-09-14T07:04:06.629Z,40
2022-09-14T07:05:06.279Z,35
2022-09-14T07:06:06.330Z,35
2022-09-14T07:07:06.313Z,40
2022-09-14T07:08:09.022Z,35
2022-09-14T07:09:06.336Z,30
2022-09-14T07:10:06.299Z,30
2022-09-14T07:11:06.291Z,30
2022-09-14T07:12:05.770Z,30
2022-09-14T07:13:05.502Z,30
2022-09-14T07:14:06.262Z,30
2022-09-14T07:15:06.012Z,30
2022-09-14T07:16:05.740Z,35
2022-09-14T07:17:06.662Z,35
2022-09-14T07:18:06.308Z,35
2022-09-14T07:19:06.240Z,35
2022-09-14T07:20:05.978Z,30
2022-09-14T07:21:11.484Z,35
2022-09-14T07:22:05.962Z,35
2022-09-14T07:23:05.951Z,30
2022-09-14T07:24:05.951Z,35
2022-09-14T07:25:06.207Z,40
2022-09-14T07:26:06.208Z,45
2022-09-14T07:27:05.666Z,45
2022-09-14T07:28:06.175Z,45
2022-09-14T07:29:05.908Z,55
2022-09-14T07:30:06.167Z,60
2022-09-14T07:31:08.902Z,75
2022-09-14T07:32:05.644Z,85
2022-09-14T07:33:06.388Z,85
2022-09-14T07:34:06.035Z,95
2022-09-14T07:35:05.938Z,95
2022-09-14T07:36:05.620Z,95
2022-09-14T07:37:06.111Z,90
2022-09-14T07:38:05.854Z,85
2022-09-14T07:39:06.948Z,85
2022-09-14T07:40:06.564Z,80
2022-09-14T07:41:05.571Z,75
2022-09-14T07:42:05.823Z,70
2022-09-14T07:43:06.888Z,65
2022-09-14T07:44:05.291Z,65
2022-09-14T07:45:05.546Z,70
2022-09-14T07:46:06.590Z,75
2022-09-14T07:47:05.791Z,75
2022-09-14T07:48:05.783Z,80
2022-09-14T07:49:05.944Z,80
2022-09-14T07:50:06.084Z,90
2022-09-14T07:51:05.774Z,100
2022-09-14T07:52:05.764Z,105
2022-09-14T07:53:05.508Z,115
2022-09-14T07:54:06.018Z,120
2022-09-14T07:55:05.820Z,130
2022-09-14T07:56:05.749Z,125
2022-09-14T07:57:06.242Z,130
2022-09-14T07:58:06.346Z,135
2022-09-14T07:59:50.380Z,130
2022-09-14T08:00:06.009Z,130
2022-09-14T08:01:06.590Z,125
2022-09-14T08:02:06.763Z,125
2022-09-14T08:03:05.736Z,120
2022-09-14T08:04:10.513Z,120
2022-09-14T08:05:05.925Z,120
2022-09-14T08:06:06.254Z,125
2022-09-14T08:07:06.243Z,120
2022-09-14T08:08:05.914Z,120
2022-09-14T08:09:05.385Z,120
2022-09-14T08:10:05.896Z,115
2022-09-14T08:11:05.891Z,115
2022-09-14T08:12:05.371Z,115
2022-09-14T08:13:05.877Z,115
2022-09-14T08:14:05.357Z,115
2022-09-14T08:15:05.349Z,115
2022-09-14T08:16:06.035Z,115
2022-09-14T08:17:05.716Z,115
2022-09-14T08:18:05.609Z,110
2022-09-14T08:19:05.587Z,115
2022-09-14T08:20:05.992Z,110
2022-09-14T08:21:06.083Z,115
2022-09-14T08:22:06.359Z,120
2022-09-14T08:23:05.557Z,125
2022-09-14T08:24:05.805Z,130
2022-09-14T08:25:05.574Z,130
2022-09-14T08:26:05.802Z,125
2022-09-14T08:27:06.064Z,120
2022-09-14T08:28:05.267Z,115
2022-09-14T08:29:05.782Z,110
2022-09-14T08:30:05.519Z,120
2022-09-14T08:31:05.767Z,120
2022-09-14T08:32:05.962Z,120
2022-09-14T08:33:10.738Z,120
2022-09-14T08:34:05.238Z,120
2022-09-14T08:35:05.491Z,125
2022-09-14T08:36:07.939Z,125
2022-09-14T08:37:05.474Z,130
2022-09-14T08:38:06.063Z,125
2022-09-14T08:39:05.748Z,135
2022-09-14T08:40:05.822Z,140
2022-09-14T08:41:05.707Z,140
2022-09-14T08:42:05.966Z,145
2022-09-14T08:43:05.723Z,145
2022-09-14T08:44:05.179Z,145
2022-09-14T08:45:11.550Z,150
2022-09-14T08:46:06.195Z,160
2022-09-14T08:47:05.427Z,165
2022-09-14T08:48:05.927Z,170
2022-09-14T08:49:05.932Z,180
2022-09-14T08:50:05.408Z,180
2022-09-14T08:51:05.397Z,180
2022-09-14T08:52:05.765Z,180
2022-09-14T08:53:05.400Z,185
2022-09-14T08:54:05.685Z,195
2022-09-14T08:55:05.369Z,195
2022-09-14T08:56:05.895Z,190
2022-09-14T08:57:05.623Z,185
2022-09-14T08:58:05.095Z,195
2022-09-14T08:59:05.350Z,205
2022-09-14T09:00:05.086Z,215
2022-09-14T09:01:05.570Z,220
2022-09-14T09:02:05.353Z,215
2022-09-14T09:03:04.805Z,210
2022-09-14T09:04:05.877Z,205
2022-09-14T09:05:05.063Z,195
2022-09-14T09:06:05.564Z,195
2022-09-14T09:07:05.557Z,195
2022-09-14T09:08:05.841Z,200
2022-09-14T09:09:05.074Z,200
2022-09-14T09:10:05.705Z,200
2022-09-14T09:11:05.549Z,195
2022-09-14T09:12:05.539Z,195
2022-09-14T09:13:05.551Z,195
2022-09-14T09:14:05.285Z,195
2022-09-14T09:15:05.289Z,190
2022-09-14T09:16:05.954Z,175
2022-09-14T09:17:05.249Z,160
2022-09-14T09:18:05.506Z,155
2022-09-14T09:19:05.508Z,155
2022-09-14T09:20:05.763Z,160
2022-09-14T09:21:05.240Z,170
2022-09-14T09:22:05.738Z,175
2022-09-14T09:23:04.957Z,175
2022-09-14T09:24:05.902Z,170
2022-09-14T09:25:05.030Z,165
2022-09-14T09:26:05.783Z,155
2022-09-14T09:27:04.953Z,150
2022-09-14T09:28:05.468Z,140
2022-09-14T09:29:04.940Z,135
2022-09-14T09:30:04.681Z,135
2022-09-14T09:31:05.725Z,140
2022-09-14T09:32:05.726Z,145
2022-09-14T09:33:05.179Z,160
2022-09-14T09:34:05.187Z,170
2022-09-14T09:35:05.427Z,175
2022-09-14T09:36:04.639Z,180
2022-09-14T09:37:04.921Z,175
2022-09-14T09:38:04.892Z,175
2022-09-14T09:39:10.625Z,170
2022-09-14T09:40:05.848Z,170
2022-09-14T09:41:05.138Z,170
2022-09-14T09:42:05.530Z,165
2022-09-14T09:43:05.635Z,160
2022-09-14T09:44:05.113Z,155
2022-09-14T09:45:11.134Z,160
2022-09-14T09:46:05.615Z,170
2022-09-14T09:47:05.714Z,180
2022-09-14T09:48:04.848Z,185
2022-09-14T09:49:05.091Z,190
2022-09-14T09:50:05.086Z,200
2022-09-14T09:51:05.334Z,205
2022-09-14T09:52:05.369Z,190
2022-09-14T09:53:10.846Z,180
2022-09-14T09:54:05.064Z,165
2022-09-14T09:55:05.450Z,155
2022-09-14T09:56:05.574Z,155
2022-09-14T09:57:05.063Z,155
2022-09-14T09:58:05.526Z,140
2022-09-14T09:59:04.527Z,125
2022-09-14T10:00:05.032Z,105
2022-09-14T10:01:08.878Z,95
2022-09-14T10:02:05.575Z,90
2022-09-14T10:03:05.278Z,90
2022-09-14T10:04:05.017Z,90
2022-09-14T10:05:05.198Z,95
2022-09-14T10:06:05.268Z,100
2022-09-14T10:07:04.966Z,110
2022-09-14T10:08:08.159Z,125
2022-09-14T10:09:04.996Z,135
2022-09-14T10:10:04.986Z,145
2022-09-14T10:11:05.337Z,145
2022-09-14T10:12:05.242Z,145
2022-09-14T10:13:05.242Z,140
2022-09-14T10:14:05.272Z,135
2022-09-14T10:15:05.241Z,125
2022-09-14T10:16:05.331Z,125
2022-09-14T10:17:05.211Z,125
2022-09-14T10:18:05.210Z,125
2022-09-14T10:19:04.777Z,125
2022-09-14T10:20:04.427Z,120
2022-09-14T10:21:04.933Z,115
2022-09-14T10:22:05.210Z,110
2022-09-14T10:23:04.673Z,105
2022-09-14T10:24:04.931Z,110
2022-09-14T10:25:04.405Z,120
2022-09-14T10:26:05.422Z,135
2022-09-14T10:27:05.445Z,145
2022-09-14T10:28:05.155Z,150
2022-09-14T10:29:04.891Z,150
2022-09-14T10:30:05.024Z,145
2022-09-14T10:31:05.046Z,140
2022-09-14T10:32:04.893Z,140
2022-09-14T10:33:05.147Z,130
2022-09-14T10:34:05.383Z,125
2022-09-14T10:35:04.627Z,120
2022-09-14T10:36:04.853Z,120
2022-09-14T10:37:05.117Z,120
2022-09-14T10:38:05.115Z,115
2022-09-14T10:39:04.841Z,120
2022-09-14T10:40:05.635Z,130
2022-09-14T10:41:05.089Z,140
2022-09-14T10:42:05.086Z,145
2022-09-14T10:43:05.076Z,150
2022-09-14T10:44:04.570Z,165
2022-09-14T10:45:05.335Z,175
2022-09-14T10:46:05.320Z,175
2022-09-14T10:47:09.787Z,160
2022-09-14T10:48:05.886Z,145
2022-09-14T10:49:04.789Z,135
2022-09-14T10:50:04.657Z,130
2022-09-14T10:51:04.530Z,125
2022-09-14T10:52:05.293Z,140
2022-09-14T10:53:04.779Z,160
2022-09-14T10:54:05.038Z,170
2022-09-14T10:55:05.042Z,170
2022-09-14T10:56:04.507Z,160
2022-09-14T10:57:05.270Z,150
2022-09-14T10:58:05.010Z,130
2022-09-14T10:59:05.276Z,105
2022-09-14T11:00:05.016Z,90
2022-09-14T11:01:04.491Z,85
2022-09-14T11:02:06.141Z,85
2022-09-14T11:03:05.587Z,85
2022-09-14T11:04:04.722Z,85
2022-09-14T11:05:05.227Z,85
2022-09-14T11:06:04.966Z,95
2022-09-14T11:07:04.450Z,95
2022-09-14T11:08:04.966Z,90
2022-09-14T11:09:04.457Z,85
2022-09-14T11:10:04.962Z,80
2022-09-14T11:11:07.092Z,80
2022-09-14T11:12:05.195Z,80
2022-09-14T11:13:05.201Z,80
2022-09-14T11:14:04.672Z,80
2022-09-14T11:15:05.079Z,80
2022-09-14T11:16:05.406Z,90
2022-09-14T11:17:04.908Z,100
2022-09-14T11:18:05.026Z,110
2022-09-14T11:19:04.692Z,125
2022-09-14T11:20:04.388Z,140
2022-09-14T11:21:04.892Z,160
2022-09-14T11:22:04.899Z,175
2022-09-14T11:23:04.873Z,190
2022-09-14T11:24:04.875Z,205
2022-09-14T11:25:05.124Z,235
2022-09-14T11:26:04.366Z,265
2022-09-14T11:27:04.392Z,260
2022-09-14T11:28:04.590Z,235
2022-09-14T11:29:04.077Z,200
2022-09-14T11:30:04.745Z,175
2022-09-14T11:31:05.523Z,165
2022-09-14T11:32:29.388Z,175
2022-09-14T11:33:04.584Z,180
2022-09-14T11:34:04.868Z,175
2022-09-14T11:35:04.608Z,155
2022-09-14T11:36:04.556Z,140
2022-09-14T11:37:05.072Z,130
2022-09-14T11:38:04.540Z,120
2022-09-14T11:39:10.848Z,125
2022-09-14T11:40:05.387Z,130
2022-09-14T11:41:04.810Z,135
2022-09-14T11:42:05.044Z,150
2022-09-14T11:43:04.792Z,170
2022-09-14T11:44:04.776Z,190
2022-09-14T11:45:04.517Z,200
2022-09-14T11:46:04.641Z,190
2022-09-14T11:47:10.234Z,185
2022-09-14T11:48:07.061Z,180
2022-09-14T11:49:05.515Z,180
2022-09-14T11:50:05.102Z,180
2022-09-14T11:51:04.768Z,170
2022-09-14T11:52:04.496Z,150
2022-09-14T11:53:04.736Z,145
2022-09-14T11:54:03.957Z,130
2022-09-14T11:55:04.474Z,135
2022-09-14T11:56:04.465Z,155
2022-09-14T11:57:04.459Z,165
2022-09-14T11:58:04.458Z,175
2022-09-14T11:59:04.274Z,170
2022-09-14T12:00:03.964Z,195
2022-09-14T12:01:04.759Z,235
2022-09-14T12:02:04.432Z,195
2022-09-14T12:03:05.364Z,165
2022-09-14T12:04:04.843Z,150
2022-09-14T12:05:04.968Z,165
2022-09-14T12:06:04.593Z,180
2022-09-14T12:07:04.736Z,190
2022-09-14T12:08:04.686Z,190
2022-09-14T12:09:04.938Z,200
2022-09-14T12:10:04.402Z,200
2022-09-14T12:11:04.917Z,195
2022-09-14T12:12:04.137Z,210
2022-09-14T12:13:04.123Z,220
2022-09-14T12:14:04.642Z,225
2022-09-14T12:15:04.450Z,225
2022-09-14T12:16:04.590Z,215
2022-09-14T12:18:04.628Z,220
2022-09-14T12:19:05.259Z,240
2022-09-14T12:20:04.372Z,250
2022-09-14T12:21:04.395Z,250
2022-09-14T12:22:04.845Z,240
2022-09-14T12:23:04.872Z,230
2022-09-14T12:24:04.086Z,220
2022-09-14T12:25:04.616Z,225
2022-09-14T12:26:04.082Z,210
2022-09-14T12:27:04.607Z,185
2022-09-14T12:28:04.338Z,185
2022-09-14T12:29:04.582Z,190
2022-09-14T12:30:04.342Z,185
2022-09-14T12:31:05.255Z,210
2022-09-14T12:32:04.569Z,225
2022-09-14T12:33:04.567Z,215
2022-09-14T12:34:04.311Z,235
2022-09-14T12:35:04.911Z,285
2022-09-14T12:36:03.816Z,250
2022-09-14T12:37:07.588Z,220
2022-09-14T12:38:04.605Z,205
2022-09-14T12:39:04.023Z,175
2022-09-14T12:40:04.402Z,170
2022-09-14T12:41:04.538Z,180
2022-09-14T12:42:04.272Z,220
2022-09-14T12:43:04.265Z,215
2022-09-14T12:44:04.008Z,210
2022-09-14T12:45:04.589Z,235
2022-09-14T12:46:05.132Z,255
2022-09-14T12:47:04.253Z,230
2022-09-14T12:48:04.507Z,225
2022-09-14T12:49:04.492Z,240
2022-09-14T12:50:03.977Z,275
2022-09-14T12:51:04.429Z,280
2022-09-14T12:52:04.240Z,280
2022-09-14T12:53:04.513Z,285
2022-09-14T12:54:04.833Z,285
2022-09-14T12:55:04.477Z,270
2022-09-14T12:56:04.476Z,290
2022-09-14T12:57:04.212Z,320
2022-09-14T12:58:04.776Z,340
2022-09-14T12:59:04.217Z,300
2022-09-14T13:00:04.729Z,240
2022-09-14T13:01:04.451Z,215
2022-09-14T13:02:05.217Z,245
2022-09-14T13:03:04.505Z,285
2022-09-14T13:04:04.188Z,280
2022-09-14T13:05:04.445Z,270
2022-09-14T13:06:04.701Z,275
2022-09-14T13:07:04.551Z,265
2022-09-14T13:08:04.465Z,235
2022-09-14T13:09:09.694Z,180
2022-09-14T13:10:04.529Z,165
2022-09-14T13:11:04.165Z,175
2022-09-14T13:12:04.193Z,175
2022-09-14T13:13:04.712Z,135
2022-09-14T13:14:03.667Z,115
2022-09-14T13:15:04.768Z,95
2022-09-14T13:16:05.068Z,95
2022-09-14T13:17:04.444Z,90
2022-09-14T13:18:04.417Z,75
2022-09-14T13:19:04.663Z,85
2022-09-14T13:20:04.378Z,105
2022-09-14T13:21:03.909Z,120
2022-09-14T13:22:04.174Z,100
2022-09-14T13:23:04.582Z,85
2022-09-14T13:24:04.170Z,75
2022-09-14T13:25:04.386Z,75
2022-09-14T13:26:04.423Z,80
2022-09-14T13:27:04.641Z,80
2022-09-14T13:28:04.655Z,90
2022-09-14T13:29:04.410Z,95
2022-09-14T13:30:04.418Z,110
2022-09-14T13:31:05.125Z,110
2022-09-14T13:32:10.668Z,110
2022-09-14T13:33:04.396Z,115
2022-09-14T13:34:04.265Z,115
2022-09-14T13:35:04.368Z,110
2022-09-14T13:36:04.444Z,105
2022-09-14T13:37:04.221Z,100
2022-09-14T13:38:04.435Z,90
2022-09-14T13:39:04.753Z,85
2022-09-14T13:40:04.923Z,75
2022-09-14T13:41:04.621Z,65
2022-09-14T13:42:04.447Z,55
2022-09-14T13:43:04.397Z,55
2022-09-14T13:44:03.543Z,55
2022-09-14T13:45:04.591Z,55
2022-09-14T13:46:04.847Z,60
2022-09-14T13:47:03.782Z,70
2022-09-14T13:48:04.285Z,70
2022-09-14T13:49:04.250Z,65
2022-09-14T13:50:04.241Z,70
2022-09-14T13:51:03.761Z,75
2022-09-14T13:52:09.594Z,80
2022-09-14T13:53:11.993Z,75
2022-09-14T13:54:04.268Z,75
2022-09-14T13:55:04.427Z,80
2022-09-14T13:56:04.357Z,85
2022-09-14T13:57:04.508Z,90
2022-09-14T13:58:04.431Z,85
2022-09-14T13:59:03.984Z,80
2022-09-14T14:00:03.542Z,70
2022-09-14T14:01:04.653Z,60
2022-09-14T14:02:05.049Z,60
2022-09-14T14:03:04.472Z,60
2022-09-14T14:04:04.227Z,65
2022-09-14T14:05:04.474Z,70
2022-09-14T14:06:03.949Z,75
2022-09-14T14:07:03.703Z,70
2022-09-14T14:08:04.209Z,60
2022-09-14T14:09:04.216Z,50
2022-09-14T14:10:03.850Z,45
2022-09-14T14:11:04.568Z,40
2022-09-14T14:12:04.216Z,40
2022-09-14T14:13:04.188Z,35
2022-09-14T14:14:04.475Z,35
2022-09-14T14:15:04.450Z,35
2022-09-14T14:16:03.904Z,35
2022-09-14T14:17:04.471Z,35
2022-09-14T14:18:03.893Z,30
2022-09-14T14:19:03.671Z,25
2022-09-14T14:20:04.167Z,25
2022-09-14T14:21:03.878Z,25
2022-09-14T14:22:03.873Z,20
2022-09-14T14:23:03.607Z,20
2022-09-14T14:24:21.897Z,15
2022-09-14T14:25:23.261Z,15
2022-09-14T14:26:03.849Z,15
2022-09-14T14:27:04.485Z,20
2022-09-14T14:28:04.128Z,25
2022-09-14T14:29:03.579Z,25
2022-09-14T14:30:04.047Z,30
2022-09-14T14:31:10.152Z,40
2022-09-14T14:32:04.472Z,45
2022-09-14T14:33:03.837Z,50
2022-09-14T14:34:04.098Z,60